Time;durP1;ratioP1;P1;durP2;ratioP2;P2;SDS_P1;SDS_P2;PMS_P1;PMS_P2;Temp;Humidity;BMP_temperature;BMP_pressure;BME280_temperature;BME280_humidity;BME280_pressure;Samples;Min_cycle;Max_cycle;Signal;HPM_P1;HPM_P2
2022/05/17 00:01:43;;;;;;;5.93;4.45;;;;;;;18.16;81.08;100660.00;4970023;28;20059;-70
2022/05/17 00:04:09;;;;;;;7.82;4.88;;;;;;;18.11;80.59;100650.34;4970090;28;20026;-72
2022/05/17 00:06:34;;;;;;;6.90;4.45;;;;;;;18.11;81.07;100652.97;4970002;28;20054;-73
2022/05/17 00:09:00;;;;;;;8.13;4.60;;;;;;;18.21;81.08;100664.38;4970053;28;20066;-73
2022/05/17 00:11:26;;;;;;;7.53;4.20;;;;;;;18.23;79.59;100657.44;4968396;28;20449;-73
2022/05/17 00:13:51;;;;;;;8.48;4.05;;;;;;;18.06;80.17;100643.34;4969683;28;20031;-73
2022/05/17 00:16:17;;;;;;;7.95;5.13;;;;;;;18.10;80.34;100671.25;4969308;28;20046;-74
2022/05/17 00:18:43;;;;;;;9.55;5.50;;;;;;;18.01;80.83;100668.56;4968938;28;20516;-74
2022/05/17 00:21:09;;;;;;;6.97;5.45;;;;;;;17.82;81.19;100676.19;4968580;28;20472;-74
2022/05/17 00:23:38;;;;;;;8.98;6.20;;;;;;;17.73;80.74;100660.41;4968349;28;20098;-74
2022/05/17 00:26:06;;;;;;;10.05;6.07;;;;;;;17.64;80.78;100650.72;4951778;28;20041;-74
2022/05/17 00:28:32;;;;;;;9.27;6.50;;;;;;;17.43;82.15;100659.19;4998968;28;20041;-73
2022/05/17 00:30:58;;;;;;;15.55;7.15;;;;;;;17.19;82.33;100616.28;5011116;28;20034;-75
2022/05/17 00:33:24;;;;;;;11.65;6.97;;;;;;;17.29;82.77;100639.03;4992717;28;20049;-73
2022/05/17 00:35:50;;;;;;;8.75;6.40;;;;;;;17.34;82.91;100654.75;5010819;28;20069;-74
2022/05/17 00:38:16;;;;;;;11.93;7.18;;;;;;;17.25;82.55;100647.69;5011146;28;20065;-73
2022/05/17 00:40:42;;;;;;;10.52;7.45;;;;;;;17.28;82.82;100655.56;5010455;28;20029;-73
2022/05/17 00:43:08;;;;;;;10.30;6.85;;;;;;;17.12;83.30;100631.00;5010746;28;20129;-72
2022/05/17 00:45:39;;;;;;;8.25;6.63;;;;;;;16.97;83.50;100625.56;5009371;28;20072;-73
2022/05/17 00:48:05;;;;;;;8.57;6.90;;;;;;;16.84;84.22;100640.16;4991954;28;20034;-73
2022/05/17 00:50:35;;;;;;;9.38;7.07;;;;;;;16.53;86.22;100655.34;5009605;28;20484;-73
2022/05/17 00:53:28;;;;;;;7.78;6.65;;;;;;;16.72;85.94;100655.63;5009114;28;20033;-73
2022/05/17 00:55:58;;;;;;;8.13;5.88;;;;;;;16.82;83.70;100657.50;4914407;29;20039;-74
2022/05/17 00:58:26;;;;;;;8.23;6.05;;;;;;;16.71;83.19;100662.59;4930608;29;20050;-73
2022/05/17 01:01:07;;;;;;;7.25;5.85;;;;;;;16.79;83.38;100660.09;4930648;29;20483;-75
2022/05/17 01:03:47;;;;;;;9.07;6.15;;;;;;;16.89;83.27;100654.13;4930831;29;20051;-74
2022/05/17 01:06:14;;;;;;;9.75;5.70;;;;;;;16.89;82.67;100648.91;4928854;29;20136;-74
2022/05/17 01:08:40;;;;;;;10.15;6.40;;;;;;;16.85;83.20;100628.88;4930216;29;20032;-73
2022/05/17 01:11:05;;;;;;;9.63;6.57;;;;;;;16.90;82.84;100640.25;4930221;29;20664;-72
2022/05/17 01:16:15;;;;;;;9.90;5.93;;;;;;;17.00;81.67;100635.16;4930726;29;20103;-73
2022/05/17 01:18:42;;;;;;;8.23;5.38;;;;;;;16.93;81.37;100632.47;4930789;29;20039;-71
2022/05/17 01:21:10;;;;;;;6.55;5.15;;;;;;;16.98;81.42;100643.88;4930610;29;20036;-72
2022/05/17 01:23:35;;;;;;;9.05;5.35;;;;;;;16.95;81.20;100638.59;4929461;29;20118;-73
2022/05/17 01:26:02;;;;;;;6.53;5.55;;;;;;;16.86;81.32;100622.81;4929419;29;20581;-75
2022/05/17 01:28:31;;;;;;;6.97;5.28;;;;;;;16.77;81.17;100622.66;4929881;29;20039;-73
2022/05/17 01:31:03;;;;;;;5.55;4.90;;;;;;;16.81;81.56;100637.53;4929616;29;20136;-74
2022/05/17 01:33:31;;;;;;;6.32;5.00;;;;;;;16.75;81.85;100629.63;4974015;28;20108;-75
2022/05/17 01:35:57;;;;;;;6.00;4.78;;;;;;;16.58;81.54;100601.56;5009036;28;20026;-75
2022/05/17 01:38:22;;;;;;;5.38;4.60;;;;;;;16.74;81.26;100620.91;5009598;28;20128;-75
2022/05/17 01:40:47;;;;;;;8.95;5.32;;;;;;;16.71;81.89;100619.97;5009303;28;20476;-76
2022/05/17 01:43:13;;;;;;;7.10;5.78;;;;;;;16.62;82.72;100607.69;5009176;28;20046;-76
2022/05/17 01:45:38;;;;;;;7.95;5.70;;;;;;;16.69;82.66;100612.16;5009491;28;20088;-76
2022/05/17 01:48:04;;;;;;;8.88;5.70;;;;;;;16.63;82.83;100615.53;5012963;28;20072;-76
2022/05/17 01:50:30;;;;;;;7.25;5.75;;;;;;;16.62;82.62;100612.91;5013464;28;20030;-76
2022/05/17 01:52:55;;;;;;;7.45;5.80;;;;;;;16.58;81.96;100616.31;5013959;28;20084;-76
2022/05/17 01:55:21;;;;;;;8.85;5.13;;;;;;;16.39;81.08;100615.19;5014390;28;20743;-76
2022/05/17 01:57:46;;;;;;;7.00;5.60;;;;;;;15.92;80.91;100554.53;5013883;28;20034;-76
2022/05/17 02:00:14;;;;;;;7.70;5.57;;;;;;;16.07;81.00;100618.13;5012175;28;20026;-75
2022/05/17 02:02:40;;;;;;;7.95;5.50;;;;;;;15.73;82.58;100594.09;5002838;28;20048;-76
2022/05/17 02:05:06;;;;;;;7.53;5.78;;;;;;;15.82;83.42;100609.91;5013483;28;20468;-75
2022/05/17 02:07:32;;;;;;;8.15;5.78;;;;;;;15.99;83.38;100626.69;5013565;28;20037;-74
2022/05/17 02:09:57;;;;;;;9.25;5.63;;;;;;;16.08;82.75;100619.91;5013454;28;20389;-76
2022/05/17 02:12:23;;;;;;;7.32;5.60;;;;;;;16.03;82.52;100587.69;5013635;28;20408;-77
2022/05/17 02:14:48;;;;;;;8.25;5.50;;;;;;;16.16;82.99;100607.84;5013302;28;20030;-75
2022/05/17 02:17:14;;;;;;;8.05;6.05;;;;;;;16.20;82.28;100611.38;5013611;28;20104;-75
2022/05/17 02:19:40;;;;;;;8.25;5.43;;;;;;;16.31;82.05;100613.34;5012989;28;20018;-76
2022/05/17 02:22:06;;;;;;;8.20;5.43;;;;;;;16.36;82.21;100604.69;4962055;28;20042;-74
2022/05/17 02:24:32;;;;;;;9.05;5.30;;;;;;;16.27;81.49;100597.63;5012838;28;20145;-75
2022/05/17 02:26:57;;;;;;;8.52;5.53;;;;;;;15.92;80.19;100579.69;5013331;28;20096;-75
2022/05/17 02:29:24;;;;;;;8.57;5.18;;;;;;;16.06;81.07;100616.38;5013123;28;20030;-72
2022/05/17 02:31:50;;;;;;;9.48;5.40;;;;;;;16.11;82.03;100610.41;5013229;28;20029;-76
2022/05/17 02:34:16;;;;;;;8.32;5.85;;;;;;;15.83;83.90;100580.41;5013073;28;20076;-75
2022/05/17 02:36:42;;;;;;;10.18;6.28;;;;;;;15.88;85.05;100607.41;5013126;28;20030;-75
2022/05/17 02:39:08;;;;;;;7.15;5.50;;;;;;;15.71;85.87;100612.28;5013121;28;20029;-76
2022/05/17 02:41:34;;;;;;;9.52;5.57;;;;;;;15.69;85.96;100627.88;5013074;28;20129;-75
2022/05/17 02:43:59;;;;;;;10.30;5.93;;;;;;;15.57;86.62;100627.63;4995414;28;20080;-74
2022/05/17 02:46:30;;;;;;;7.43;5.20;;;;;;;15.34;87.08;100599.47;5012936;28;20022;-72
2022/05/17 02:48:56;;;;;;;7.30;5.65;;;;;;;15.34;88.08;100616.81;5012950;28;20026;-72
2022/05/17 02:51:22;;;;;;;10.00;6.13;;;;;;;15.27;89.24;100625.31;5013046;28;20113;-73
2022/05/17 02:53:47;;;;;;;9.50;6.13;;;;;;;15.16;89.60;100612.97;5012968;28;20029;-72
2022/05/17 02:56:12;;;;;;;10.43;6.38;;;;;;;14.64;92.41;100641.28;5012756;28;20092;-74
2022/05/17 02:58:38;;;;;;;8.93;5.82;;;;;;;14.70;93.19;100644.06;5012435;28;20030;-75
2022/05/17 03:01:05;;;;;;;10.27;6.15;;;;;;;14.92;92.70;100635.88;5012767;28;20026;-76
2022/05/17 03:03:30;;;;;;;10.70;6.32;;;;;;;15.11;91.49;100638.00;5011870;28;20037;-71
2022/05/17 03:05:56;;;;;;;10.52;6.45;;;;;;;15.16;91.55;100640.69;5012639;28;20030;-71
2022/05/17 03:08:22;;;;;;;8.85;6.50;;;;;;;15.14;92.01;100639.78;5012495;28;20053;-75
2022/05/17 03:10:48;;;;;;;9.65;6.15;;;;;;;15.18;91.79;100633.81;5012764;28;20519;-72
2022/05/17 03:13:14;;;;;;;8.13;6.38;;;;;;;15.23;91.55;100637.38;5012453;28;20113;-75
2022/05/17 03:15:41;;;;;;;11.52;5.93;;;;;;;15.26;89.92;100634.84;5012178;28;20454;-74
2022/05/17 03:18:06;;;;;;;11.35;6.15;;;;;;;15.26;88.00;100634.84;5012059;28;20029;-73
2022/05/17 03:20:32;;;;;;;9.50;6.93;;;;;;;14.99;88.91;100637.72;5012401;28;20427;-74
2022/05/17 03:22:57;;;;;;;12.68;6.70;;;;;;;14.91;90.09;100645.38;5011963;28;20026;-72
2022/05/17 03:25:23;;;;;;;13.02;6.50;;;;;;;14.92;90.52;100636.72;5012281;28;20026;-77
2022/05/17 03:27:49;;;;;;;10.02;6.05;;;;;;;15.03;90.05;100643.03;4961417;28;20049;-72
2022/05/17 03:30:15;;;;;;;11.00;6.50;;;;;;;15.10;90.04;100631.03;5012081;28;20041;-76
2022/05/17 03:32:42;;;;;;;10.75;6.72;;;;;;;15.11;90.84;100650.13;5011717;28;20061;-74
2022/05/17 03:35:08;;;;;;;7.95;6.65;;;;;;;15.13;91.09;100638.91;4994293;28;20030;-74
2022/05/17 03:37:35;;;;;;;9.25;6.70;;;;;;;15.27;91.08;100649.59;5011890;28;20500;-76
2022/05/17 03:40:01;;;;;;;10.70;6.65;;;;;;;15.35;90.81;100653.25;5011756;28;20034;-72
2022/05/17 03:42:26;;;;;;;7.32;6.53;;;;;;;15.46;90.51;100653.44;5011647;28;20041;-74
2022/05/17 03:44:52;;;;;;;10.52;6.53;;;;;;;15.46;90.32;100640.44;4994285;28;20029;-74
2022/05/17 03:47:17;;;;;;;7.82;6.50;;;;;;;15.52;90.85;100650.97;5011614;28;20066;-71
2022/05/17 03:49:43;;;;;;;13.98;6.97;;;;;;;15.30;92.80;100651.38;5011705;28;20030;-77
2022/05/17 03:52:09;;;;;;;11.68;6.65;;;;;;;15.31;92.72;100637.53;5007208;28;20030;-73
2022/05/17 03:54:36;;;;;;;7.88;6.35;;;;;;;15.48;92.74;100653.50;5006956;28;20030;-74
2022/05/17 03:57:02;;;;;;;7.78;6.15;;;;;;;15.57;92.40;100655.41;5003476;28;20044;-74
2022/05/17 03:59:28;;;;;;;9.25;6.68;;;;;;;15.48;91.73;100620.53;5001179;28;20101;-74
2022/05/17 04:01:53;;;;;;;9.48;7.03;;;;;;;15.74;91.02;100653.09;4995232;28;20408;-71
2022/05/17 04:04:18;;;;;;;9.70;6.90;;;;;;;15.76;90.77;100661.81;4991891;28;20082;-73
2022/05/17 04:06:46;;;;;;;8.75;7.03;;;;;;;15.69;90.96;100656.50;4991613;28;20113;-74
2022/05/17 04:09:12;;;;;;;8.45;7.05;;;;;;;15.60;91.63;100652.84;4974111;28;20030;-75
2022/05/17 04:11:37;;;;;;;11.93;7.32;;;;;;;15.48;91.99;100643.09;4991620;28;20033;-75
2022/05/17 04:14:03;;;;;;;11.23;6.90;;;;;;;15.24;92.76;100631.34;4991654;28;20023;-74
2022/05/17 04:16:34;;;;;;;8.73;7.00;;;;;;;15.22;93.56;100661.63;4991287;28;20096;-73
2022/05/17 04:19:00;;;;;;;9.00;6.80;;;;;;;15.15;94.65;100649.34;4963977;28;20046;-74
2022/05/17 04:21:26;;;;;;;11.25;7.75;;;;;;;15.20;95.07;100656.41;4999008;28;20528;-72
2022/05/17 04:23:52;;;;;;;8.63;7.70;;;;;;;15.39;95.85;100668.91;4993559;28;20034;-75
2022/05/17 04:26:18;;;;;;;11.05;7.30;;;;;;;15.56;95.78;100656.25;5006504;28;20046;-73
2022/05/17 04:28:44;;;;;;;13.48;7.05;;;;;;;15.78;94.84;100666.19;4982927;28;20062;-74
2022/05/17 04:31:09;;;;;;;10.80;7.10;;;;;;;15.77;93.29;100648.81;5000521;28;20026;-73
2022/05/17 04:33:35;;;;;;;14.55;6.95;;;;;;;16.00;93.68;100666.66;4993968;28;20038;-73
2022/05/17 04:36:01;;;;;;;9.40;7.38;;;;;;;16.06;93.46;100658.03;4991592;28;20049;-73
2022/05/17 04:38:26;;;;;;;10.98;7.45;;;;;;;16.14;93.09;100665.16;4991544;28;20026;-71
2022/05/17 04:40:52;;;;;;;9.45;6.57;;;;;;;16.17;94.03;100662.59;4991574;28;20161;-71
2022/05/17 04:43:17;;;;;;;8.98;7.88;;;;;;;16.16;93.94;100655.63;4991703;28;20416;-73
2022/05/17 04:45:44;;;;;;;8.10;6.97;;;;;;;16.24;93.12;100657.50;4989072;28;20402;-74
2022/05/17 04:48:10;;;;;;;9.93;7.30;;;;;;;16.27;93.87;100661.00;4991487;28;20041;-73
2022/05/17 04:50:36;;;;;;;8.98;7.93;;;;;;;16.34;93.04;100665.47;4991333;28;20030;-73
2022/05/17 04:53:02;;;;;;;11.15;7.95;;;;;;;16.26;93.56;100654.06;4991461;28;20504;-72
2022/05/17 04:55:28;;;;;;;11.70;8.82;;;;;;;16.13;94.15;100631.25;4991176;28;20022;-73
2022/05/17 04:57:54;;;;;;;9.75;7.90;;;;;;;16.19;95.15;100644.41;4991169;28;20035;-73
2022/05/17 05:00:22;;;;;;;13.77;8.50;;;;;;;16.42;95.08;100664.72;4991229;28;20061;-73
2022/05/17 05:02:47;;;;;;;9.98;8.57;;;;;;;16.33;95.21;100652.44;4991219;28;20117;-73
2022/05/17 05:05:14;;;;;;;10.75;8.60;;;;;;;16.23;96.66;100669.63;4991564;28;20109;-70
2022/05/17 05:07:40;;;;;;;10.38;8.45;;;;;;;15.97;97.51;100619.69;4991138;28;20066;-73
2022/05/17 05:10:06;;;;;;;9.40;8.15;;;;;;;16.20;98.28;100664.38;4991425;28;20066;-72
2022/05/17 05:12:33;;;;;;;12.13;9.20;;;;;;;16.29;98.76;100661.91;4990978;28;20531;-72
2022/05/17 05:15:00;;;;;;;20.50;9.43;;;;;;;16.45;98.69;100656.97;4991075;28;20037;-73
2022/05/17 05:17:29;;;;;;;11.73;9.45;;;;;;;16.59;98.64;100654.56;4991357;28;20042;-73
2022/05/17 05:19:54;;;;;;;10.90;8.93;;;;;;;16.62;98.75;100645.06;4991909;28;20113;-72
2022/05/17 05:22:20;;;;;;;10.55;9.35;;;;;;;16.85;97.80;100656.66;4995056;28;20344;-70
2022/05/17 05:24:45;;;;;;;11.30;8.95;;;;;;;16.95;96.98;100663.81;4994988;28;20034;-72
2022/05/17 05:27:10;;;;;;;13.30;9.70;;;;;;;17.01;95.68;100663.91;4994719;28;20040;-72
2022/05/17 05:29:36;;;;;;;10.85;8.65;;;;;;;17.08;96.34;100664.84;4995016;28;20027;-73
2022/05/17 05:32:01;;;;;;;11.65;8.70;;;;;;;17.12;97.33;100666.63;4992850;28;20057;-73
2022/05/17 05:34:27;;;;;;;16.02;9.00;;;;;;;17.26;96.35;100659.88;4994788;28;20503;-73
2022/05/17 05:36:54;;;;;;;13.40;8.85;;;;;;;17.45;96.17;100665.31;4994770;28;20061;-72
2022/05/17 05:39:21;;;;;;;12.05;8.25;;;;;;;17.46;95.52;100654.03;4994823;28;20404;-73
2022/05/17 05:41:47;;;;;;;9.45;8.35;;;;;;;17.74;94.11;100672.59;4994575;28;20054;-73
2022/05/17 05:44:13;;;;;;;11.75;8.52;;;;;;;17.73;94.66;100653.47;4994693;28;20113;-73
2022/05/17 05:46:38;;;;;;;10.93;8.02;;;;;;;17.83;94.23;100662.28;4994752;28;20026;-73
2022/05/17 05:49:04;;;;;;;8.95;7.95;;;;;;;18.04;94.93;100664.22;4994616;28;20027;-70
2022/05/17 05:51:29;;;;;;;10.88;7.97;;;;;;;18.17;93.53;100661.72;4994930;28;20026;-73
2022/05/17 05:53:55;;;;;;;8.82;7.93;;;;;;;18.24;92.57;100659.19;4994308;28;20057;-72
2022/05/17 05:56:20;;;;;;;9.55;8.32;;;;;;;18.16;93.67;100660.84;4994213;28;20088;-72
2022/05/17 05:58:46;;;;;;;10.82;8.48;;;;;;;18.13;94.47;100647.78;4994453;28;20030;-73
2022/05/17 06:01:14;;;;;;;11.05;8.32;;;;;;;18.22;94.01;100634.78;4994575;28;20030;-74
2022/05/17 06:03:39;;;;;;;10.52;8.50;;;;;;;18.32;94.03;100635.72;4994387;28;20034;-73
2022/05/17 06:06:08;;;;;;;9.38;8.30;;;;;;;18.46;93.30;100650.66;4994394;28;20504;-73
2022/05/17 06:08:34;;;;;;;10.55;8.00;;;;;;;18.45;93.41;100631.47;4994308;28;20036;-73
2022/05/17 06:11:01;;;;;;;11.13;8.10;;;;;;;18.70;92.61;100657.78;4993787;28;20022;-73
2022/05/17 06:13:27;;;;;;;11.38;8.07;;;;;;;18.80;91.92;100643.88;4998789;28;20057;-73
2022/05/17 06:15:53;;;;;;;8.82;7.93;;;;;;;18.96;91.54;100649.25;4993933;28;20034;-72
2022/05/17 06:18:19;;;;;;;10.02;8.20;;;;;;;19.06;91.50;100651.91;4994208;28;20081;-72
2022/05/17 06:20:52;;;;;;;9.30;8.10;;;;;;;19.19;90.59;100652.84;4994028;28;20089;-73
2022/05/17 06:23:19;;;;;;;10.82;7.90;;;;;;;19.31;89.05;100638.06;4993953;28;20390;-72
2022/05/17 06:25:44;;;;;;;9.40;8.35;;;;;;;19.24;88.49;100617.09;4993812;28;20034;-72
2022/05/17 06:28:10;;;;;;;8.82;7.72;;;;;;;19.52;89.30;100651.22;4994123;28;20459;-73
2022/05/17 06:30:37;;;;;;;11.48;7.68;;;;;;;19.48;89.02;100625.91;4993988;28;20100;-73
2022/05/17 06:33:02;;;;;;;10.13;7.93;;;;;;;19.49;87.71;100653.84;4993128;28;20088;-73
2022/05/17 06:35:28;;;;;;;12.10;7.68;;;;;;;19.62;88.42;100644.25;4959113;28;20038;-73
2022/05/17 06:37:54;;;;;;;8.75;7.50;;;;;;;19.60;88.66;100632.03;4993613;28;20049;-73
2022/05/17 06:40:19;;;;;;;13.88;8.00;;;;;;;19.85;88.62;100648.69;4993495;28;20492;-73
2022/05/17 06:42:45;;;;;;;11.10;8.23;;;;;;;19.98;86.67;100641.75;4993661;28;20113;-73
2022/05/17 06:45:12;;;;;;;15.60;8.45;;;;;;;20.01;86.55;100637.38;4993507;28;20092;-75
2022/05/17 06:47:38;;;;;;;12.70;8.32;;;;;;;20.15;86.37;100645.25;4993488;28;20405;-73
2022/05/17 06:50:05;;;;;;;10.13;8.90;;;;;;;20.00;86.37;100638.25;4993423;28;20026;-73
2022/05/17 06:52:30;;;;;;;9.43;8.23;;;;;;;20.11;86.78;100643.50;4993367;28;20530;-73
2022/05/17 06:54:56;;;;;;;13.23;8.60;;;;;;;20.32;85.30;100644.38;4993269;28;20136;-73
2022/05/17 06:57:21;;;;;;;9.32;7.65;;;;;;;20.39;85.62;100634.72;4993266;28;20042;-73
2022/05/17 06:59:47;;;;;;;9.30;7.93;;;;;;;20.52;84.16;100637.38;4975851;28;20042;-73
2022/05/17 07:02:12;;;;;;;9.20;8.13;;;;;;;20.58;83.31;100625.13;4993446;28;20401;-71
2022/05/17 07:04:39;;;;;;;8.82;7.63;;;;;;;20.74;83.39;100621.59;4993159;28;20037;-73
2022/05/17 07:07:06;;;;;;;12.65;8.32;;;;;;;20.66;82.93;100592.75;5005800;28;20628;-72
2022/05/17 07:09:32;;;;;;;8.77;7.88;;;;;;;21.01;82.41;100631.13;5008994;28;20030;-73
2022/05/17 07:14:42;;;;;;;9.80;7.80;;;;;;;21.24;75.73;100642.44;5003980;28;20037;-73
2022/05/17 07:17:20;;;;;;;10.40;8.25;;;;;;;21.10;79.78;100626.75;4992809;28;20420;-73
2022/05/17 07:19:46;;;;;;;11.82;8.18;;;;;;;21.07;77.81;100627.63;5000154;28;20416;-73
2022/05/17 07:22:12;;;;;;;10.70;8.68;;;;;;;21.07;77.28;100632.00;5012631;28;20029;-74
2022/05/17 07:24:38;;;;;;;12.10;8.55;;;;;;;21.08;78.57;100637.22;5001815;28;20026;-73
2022/05/17 07:27:05;;;;;;;11.20;9.32;;;;;;;21.10;78.08;100635.47;4992859;28;20113;-73
2022/05/17 07:29:32;;;;;;;15.20;9.20;;;;;;;21.05;77.55;100603.13;4992721;28;20030;-73
2022/05/17 07:31:58;;;;;;;11.52;9.65;;;;;;;21.08;77.41;100631.97;4992573;28;20034;-73
2022/05/17 07:34:23;;;;;;;11.38;10.18;;;;;;;20.72;78.46;100551.66;4992724;28;20029;-73
2022/05/17 07:36:49;;;;;;;12.10;10.80;;;;;;;21.40;78.97;100633.59;4992557;28;20045;-73
2022/05/17 07:39:15;;;;;;;14.25;10.55;;;;;;;21.50;78.14;100640.53;4992573;28;20109;-73
2022/05/17 07:41:42;;;;;;;11.20;10.02;;;;;;;21.61;78.68;100637.91;4992559;28;20030;-73
2022/05/17 07:44:08;;;;;;;12.38;11.02;;;;;;;21.69;80.05;100643.09;4991251;28;20444;-77
2022/05/17 07:46:34;;;;;;;16.00;11.23;;;;;;;21.68;81.04;100643.09;4992270;28;20092;-73
2022/05/17 07:48:59;;;;;;;10.75;9.77;;;;;;;21.84;76.80;100634.25;4992128;28;20034;-73
2022/05/17 07:51:25;;;;;;;12.63;10.15;;;;;;;22.20;74.36;100637.47;4992375;28;20487;-73
2022/05/17 07:53:50;;;;;;;12.30;10.07;;;;;;;22.22;74.42;100640.06;4992276;28;20027;-73
2022/05/17 07:56:16;;;;;;;11.50;10.30;;;;;;;22.29;75.19;100640.03;4992181;28;20030;-73
2022/05/17 07:58:42;;;;;;;12.77;10.75;;;;;;;22.23;75.37;100610.25;4992161;28;20030;-73
2022/05/17 08:01:08;;;;;;;11.18;9.98;;;;;;;22.46;74.26;100624.09;4992057;28;20701;-72
2022/05/17 08:03:33;;;;;;;12.10;9.75;;;;;;;22.67;73.60;100623.91;4991931;28;20033;-74
2022/05/17 08:05:59;;;;;;;11.02;9.50;;;;;;;22.90;72.00;100619.28;4992023;28;20089;-73
2022/05/17 08:08:25;;;;;;;11.13;10.13;;;;;;;23.00;70.97;100612.13;4991703;28;20036;-73
2022/05/17 08:10:51;;;;;;;11.43;10.15;;;;;;;22.95;72.22;100611.31;4992002;28;20034;-73
2022/05/17 08:13:18;;;;;;;12.00;10.85;;;;;;;23.01;71.57;100611.22;4991340;28;20030;-73
2022/05/17 08:15:44;;;;;;;12.50;9.95;;;;;;;23.15;70.92;100618.09;4992115;28;20077;-73
2022/05/17 08:18:10;;;;;;;11.95;10.77;;;;;;;23.22;70.91;100599.59;4991974;28;20034;-73
2022/05/17 08:20:39;;;;;;;12.65;11.35;;;;;;;23.40;70.02;100600.22;4992349;28;20092;-73
2022/05/17 08:23:05;;;;;;;18.80;11.75;;;;;;;23.39;69.99;100583.56;4992154;28;20062;-73
2022/05/17 08:28:15;;;;;;;12.60;10.60;;;;;;;23.55;70.54;100592.09;4991892;28;20033;-73
2022/05/17 08:30:45;;;;;;;11.77;10.57;;;;;;;23.59;69.93;100593.78;4991758;28;20030;-73
2022/05/17 08:33:19;;;;;;;13.23;9.50;;;;;;;23.73;69.02;100579.53;4991976;28;20019;-73
2022/05/17 08:35:46;;;;;;;11.70;9.98;;;;;;;23.94;67.59;100590.66;4991733;28;20041;-73
2022/05/17 08:38:15;;;;;;;10.85;9.75;;;;;;;24.09;67.68;100590.41;4991710;28;20033;-76
2022/05/17 08:41:07;;;;;;;12.10;10.93;;;;;;;24.20;66.63;100590.19;5002311;28;20393;-73
2022/05/17 08:43:53;;;;;;;11.98;10.45;;;;;;;24.22;68.56;100584.03;4991684;28;20069;-73
2022/05/17 08:46:40;;;;;;;11.35;10.00;;;;;;;24.41;67.41;100577.53;4991539;28;20411;-73
2022/05/17 08:49:26;;;;;;;12.35;10.30;;;;;;;24.52;66.07;100573.81;4991320;28;20034;-73
2022/05/17 08:51:55;;;;;;;11.82;10.63;;;;;;;24.60;68.77;100568.38;4991304;28;20050;-73
2022/05/17 08:54:25;;;;;;;11.60;10.45;;;;;;;24.65;66.38;100565.66;4991050;28;20392;-73
2022/05/17 08:57:00;;;;;;;11.27;10.18;;;;;;;24.84;65.67;100567.03;4991320;28;20028;-73
2022/05/17 08:59:27;;;;;;;12.27;10.05;;;;;;;24.93;64.65;100563.31;4991261;28;20041;-73
2022/05/17 09:02:00;;;;;;;10.45;9.15;;;;;;;24.68;61.84;100508.38;4989980;28;20026;-73
2022/05/17 09:04:49;;;;;;;12.07;8.90;;;;;;;24.88;61.27;100557.25;4991472;28;20031;-74
2022/05/17 09:07:23;;;;;;;14.23;9.25;;;;;;;24.89;61.28;100552.88;4991305;28;20026;-76
2022/05/17 09:09:57;;;;;;;14.25;8.90;;;;;;;25.04;60.99;100555.16;4991548;28;20520;-73
2022/05/17 09:12:43;;;;;;;11.20;9.95;;;;;;;25.21;62.19;100557.44;4991137;28;20033;-75
2022/05/17 09:15:10;;;;;;;11.63;9.80;;;;;;;25.25;64.64;100547.69;4991151;28;20382;-73
2022/05/17 09:17:36;;;;;;;10.90;9.80;;;;;;;25.52;62.11;100547.06;4990983;28;20038;-73
2022/05/17 09:20:04;;;;;;;12.10;9.63;;;;;;;25.71;60.46;100541.31;4991054;28;20034;-73
2022/05/17 09:22:30;;;;;;;12.15;10.20;;;;;;;25.61;60.01;100516.88;4991082;28;20105;-73
2022/05/17 09:25:01;;;;;;;12.77;10.15;;;;;;;25.80;60.57;100538.44;4991079;28;20113;-75
2022/05/17 09:27:38;;;;;;;10.13;9.23;;;;;;;25.92;58.36;100537.28;4991217;28;20085;-73
2022/05/17 09:30:26;;;;;;;14.38;10.02;;;;;;;26.14;59.85;100524.38;4991075;28;20112;-73
2022/05/17 09:33:07;;;;;;;9.55;8.55;;;;;;;26.14;58.96;100512.91;4990994;28;20053;-73
2022/05/17 09:35:42;;;;;;;9.65;8.65;;;;;;;26.39;55.92;100528.13;4990382;28;20033;-73
2022/05/17 09:38:09;;;;;;;8.98;8.07;;;;;;;26.40;55.28;100508.69;4995785;28;20033;-71
2022/05/17 09:40:40;;;;;;;12.50;9.13;;;;;;;26.52;56.12;100516.28;4990895;28;20038;-71
2022/05/17 09:43:11;;;;;;;10.40;8.32;;;;;;;26.73;54.19;100519.19;4991044;28;20058;-74
2022/05/17 09:45:46;;;;;;;10.75;8.30;;;;;;;26.87;52.06;100511.75;4990706;28;20030;-73
2022/05/17 09:48:13;;;;;;;8.77;7.38;;;;;;;27.11;50.70;100511.91;4991043;28;20041;-73
2022/05/17 09:53:44;;;;;;;8.10;7.18;;;;;;;27.26;49.49;100502.59;4991104;28;20049;-73
2022/05/17 09:56:10;;;;;;;8.70;7.20;;;;;;;27.31;51.27;100507.78;4990878;28;20121;-73
2022/05/17 09:58:38;;;;;;;9.15;7.50;;;;;;;27.28;51.02;100504.28;4973093;28;20150;-72
2022/05/17 10:01:17;;;;;;;12.75;8.02;;;;;;;27.39;51.68;100500.41;4999528;28;20025;-73
2022/05/17 10:03:58;;;;;;;8.75;7.88;;;;;;;27.20;50.68;100450.66;4999169;28;20100;-71
2022/05/17 10:06:34;;;;;;;9.57;7.60;;;;;;;27.52;50.64;100495.63;4998298;28;20025;-70
2022/05/17 10:09:09;;;;;;;9.80;6.90;;;;;;;27.52;49.31;100480.56;4994316;28;20037;-73
2022/05/17 10:11:49;;;;;;;8.70;7.80;;;;;;;27.71;50.26;100482.59;4994543;28;20550;-74
2022/05/17 10:14:37;;;;;;;8.48;6.80;;;;;;;27.68;49.07;100483.56;4994179;28;20033;-76
2022/05/17 10:17:05;;;;;;;9.25;6.93;;;;;;;27.96;48.99;100481.75;4994203;28;20567;-80
2022/05/17 10:19:54;;;;;;;10.25;7.50;;;;;;;28.15;46.60;100476.69;4993981;28;20093;-74
2022/05/17 10:23:06;;;;;;;9.20;6.80;;;;;;;28.30;45.80;100472.59;5012562;28;20034;-74
2022/05/17 10:25:57;;;;;;;7.43;6.57;;;;;;;28.16;47.04;100476.63;4933674;29;20048;-73
2022/05/17 10:28:34;;;;;;;6.93;6.22;;;;;;;28.20;45.77;100469.41;4933708;29;20032;-73
2022/05/17 10:31:10;;;;;;;10.68;7.10;;;;;;;28.51;44.80;100469.16;4933554;29;20046;-77
2022/05/17 10:33:49;;;;;;;8.93;6.15;;;;;;;28.49;45.54;100472.78;4935308;29;20579;-72
2022/05/17 10:36:23;;;;;;;7.90;6.43;;;;;;;28.62;44.63;100451.94;4933901;29;20043;-76
2022/05/17 10:39:04;;;;;;;7.47;6.65;;;;;;;28.52;45.13;100468.19;4932467;29;20086;-76
2022/05/17 10:41:30;;;;;;;7.45;5.70;;;;;;;28.40;41.83;100434.19;4932591;29;20079;-73
2022/05/17 10:43:58;;;;;;;6.85;5.25;;;;;;;28.76;42.62;100452.28;4932818;29;20091;-74
2022/05/17 10:46:31;;;;;;;6.18;5.28;;;;;;;29.07;41.81;100458.19;4933096;29;20414;-76
2022/05/17 10:49:11;;;;;;;6.55;4.95;;;;;;;29.21;37.95;100454.03;4933127;29;20044;-78
2022/05/17 10:52:13;;;;;;;5.97;4.78;;;;;;;29.27;38.55;100442.25;4933205;29;20031;-89
2022/05/17 10:55:02;;;;;;;6.50;4.53;;;;;;;28.69;38.52;100403.00;4857848;29;20556;-75
2022/05/17 10:57:46;;;;;;;6.85;5.30;;;;;;;28.87;42.62;100427.94;4801142;29;20588;-75
2022/05/17 11:00:18;;;;;;;7.63;5.70;;;;;;;28.94;43.25;100436.56;4809485;29;20551;-75
2022/05/17 11:03:06;;;;;;;7.80;5.72;;;;;;;28.84;43.70;100430.75;4838061;29;20113;-73
2022/05/17 11:05:50;;;;;;;6.90;5.68;;;;;;;29.02;43.98;100422.03;4838532;29;20075;-72
2022/05/17 11:08:46;;;;;;;6.75;4.68;;;;;;;29.32;38.15;100413.75;4838921;29;20050;-73
2022/05/17 11:11:40;;;;;;;6.43;5.18;;;;;;;29.51;39.11;100408.47;4839346;29;20040;-75
2022/05/17 11:14:24;;;;;;;8.75;4.93;;;;;;;29.37;39.09;100408.19;4839281;29;20127;-74
2022/05/17 11:17:11;;;;;;;6.88;4.38;;;;;;;29.33;39.22;100372.03;4839176;29;20056;-74
2022/05/17 11:19:37;;;;;;;5.55;4.78;;;;;;;29.36;40.06;100409.16;4838742;29;20064;-77
2022/05/17 11:22:17;;;;;;;8.23;5.50;;;;;;;29.73;39.59;100396.03;4838871;29;20505;-77
2022/05/17 11:24:48;;;;;;;7.65;5.30;;;;;;;29.91;41.20;100399.69;4839116;29;20517;-70
2022/05/17 11:27:58;;;;;;;8.38;5.00;;;;;;;30.18;39.84;100393.13;4839117;29;20132;-83
2022/05/17 11:30:34;;;;;;;6.80;4.82;;;;;;;30.25;38.13;100395.50;4892715;29;20173;-76
2022/05/17 11:33:28;;;;;;;6.63;5.50;;;;;;;29.90;39.01;100395.34;4894466;29;20104;-76
2022/05/17 11:36:04;;;;;;;5.50;4.88;;;;;;;29.92;38.34;100369.50;4932001;29;20123;-78
2022/05/17 11:38:32;;;;;;;7.05;4.78;;;;;;;30.11;37.61;100386.34;4932267;29;20032;-76
2022/05/17 11:41:00;;;;;;;7.15;5.07;;;;;;;30.24;37.56;100375.13;4932173;29;20040;-79
2022/05/17 11:43:44;;;;;;;8.90;5.40;;;;;;;30.57;36.52;100382.47;4932152;29;20119;-80